This is the latest recevied weather packets stored in our database for station/object OH2CHY-10. If no packets are shown the sender has not sent any weather packets the latest 1 day(s).
| Time | Temp. | Humidity | Pressure | Rain* | Wind** | Luminosity | Snow |
|---|---|---|---|---|---|---|---|
| 1778104773 | 3.89° C | 47% | 1015 hPa | - | - | - | - |
| 1778103873 | 3.89° C | 49% | 1014.8 hPa | - | - | - | - |
| 1778102973 | 4.44° C | 50% | 1014.8 hPa | - | - | - | - |
| 1778102073 | 4.44° C | 51% | 1014.7 hPa | - | - | - | - |
| 1778101173 | 4.44° C | 49% | 1014.6 hPa | - | - | - | - |
| 1778100273 | 5° C | 48% | 1014.6 hPa | - | - | - | - |
| 1778090372 | 10° C | 37% | 1014.2 hPa | - | - | - | - |
| 1778089472 | 10° C | 36% | 1014.1 hPa | - | - | - | - |
| 1778088572 | 10.56° C | 35% | 1014.1 hPa | - | - | - | - |
| 1778087672 | 10.56° C | 34% | 1013.9 hPa | - | - | - | - |
| 1778086772 | 11.11° C | 33% | 1013.8 hPa | - | - | - | - |
| 1778078671 | 13.89° C | 28% | 1013.8 hPa | - | - | - | - |
| 1778076871 | 14.44° C | 27% | 1013.8 hPa | - | - | - | - |
| 1778075971 | 14.44° C | 27% | 1013.8 hPa | - | - | - | - |
| 1778075071 | 16.11° C | 25% | 1013.7 hPa | - | - | - | - |
| 1778074171 | 17.22° C | 24% | 1013.7 hPa | - | - | - | - |
| 1778066070 | 17.22° C | 21% | 1013.5 hPa | - | - | - | - |
| 1778065170 | 17.78° C | 20% | 1013.5 hPa | - | - | - | - |
| 1778064270 | 17.78° C | 22% | 1013.4 hPa | - | - | - | - |
| 1778063370 | 16.11° C | 23% | 1013.5 hPa | - | - | - | - |
| 1778062470 | 13.89° C | 27% | 1013.6 hPa | - | - | - | - |
| 1778061570 | 16.67° C | 24% | 1013.3 hPa | - | - | - | - |
| 1778060670 | 14.44° C | 26% | 1013.5 hPa | - | - | - | - |
| 1778052569 | 12.22° C | 34% | 1012.7 hPa | - | - | - | - |
| 1778051669 | 11.67° C | 36% | 1012.6 hPa | - | - | - | - |
* Rain since midnight (hover to see other rain measurements)
** Current wind speed in m/s (hover to see current wind gust speed)